Flight Track Log - Related Links

Times and Time Zones

All times are in EDT time to prevent confusion due to time zone crossing. See the N490ER flight status page for this flight to view local times or setup timezone preferences in your user account.

Time Position Orientation Groundspeed Altitude Reporting Facility
EDT Latitude Longitude Course Direction KTS MPH feet Rate Location/Type
Tue 10:42:05 PM 29.6931 -82.2900 292° West 85 98 800  Level Jacksonville Center
Tue 10:42:53 PM 29.6869 -82.3092 250° West 83 96 1,300 661 Climbing Jacksonville Center
Tue 10:43:54 PM 29.6722 -82.3236 220° Southwest 77 89 2,000 645 Climbing Jacksonville Center
Tue 10:44:54 PM 29.6639 -82.2997 112° Southeast 77 89 2,600 545 Climbing Jacksonville Center
Tue 10:45:55 PM 29.6556 -82.2808 117° Southeast 74 85 3,100 590 Climbing Jacksonville Center
Tue 10:46:56 PM 29.6511 -82.2592 103° East 73 84 3,800 496 Climbing Jacksonville Center
Tue 10:47:56 PM 29.6406 -82.2331 115° Southeast 85 98 4,100 149 Climbing Jacksonville Center
Tue 10:48:57 PM 29.6300 -82.2117 120° Southeast 80 92 4,100 -49 Level Jacksonville Center
Tue 10:49:58 PM 29.6217 -82.1878 112° Southeast 73 84 4,000  Descending Jacksonville Center
Tue 10:50:58 PM 29.6089 -82.1664 124° Southeast 78 90 4,100 50 Climbing Jacksonville Center
Tue 10:51:59 PM 29.5964 -82.1472 127° Southeast 85 98 4,100 -49 Level Jacksonville Center
Tue 10:53:00 PM 29.5878 -82.1189 109° East 90 104 4,000 -50 Descending Jacksonville Center
Tue 10:54:00 PM 29.5814 -82.0950 107° East 91 105 4,000 50 Level Jacksonville Center
Tue 10:55:01 PM 29.5686 -82.0664 117° Southeast 89 102 4,100 47 Climbing Jacksonville Center
Tue 10:56:07 PM 29.5600 -82.0378 109° East 90 104 4,100 -47 Level Jacksonville Center
Tue 10:57:08 PM 29.5453 -82.0117 123° Southeast 94 108 4,000 -49 Descending Jacksonville Center
Tue 10:58:09 PM 29.5367 -81.9831 109° East 93 107 4,000  Level Jacksonville Center
Tue 10:59:16 PM 29.5197 -81.9547 124° Southeast 91 105 4,000  Level Jacksonville Center
Tue 11:00:16 PM 29.5092 -81.9286 115° Southeast 90 104 4,000  Level Jacksonville Center
Tue 11:01:17 PM 29.4986 -81.9022 115° Southeast 90 104 4,000  Level Jacksonville Center
Tue 11:02:17 PM 29.4942 -81.8739 100° East 97 112 4,000  Level Jacksonville Center
Tue 11:03:18 PM 29.4856 -81.8428 108° East 94 108 4,000  Level Jacksonville Center
Tue 11:04:19 PM 29.4750 -81.8192 117° Southeast 92 106 4,000 50 Level Jacksonville Center
Tue 11:05:19 PM 29.4622 -81.7931 119° Southeast 86 99 4,100 50 Climbing Jacksonville Center
Tue 11:06:20 PM 29.4536 -81.7669 111° Southeast 88 101 4,100  Level Jacksonville Center
Tue 11:07:41 PM 29.4408 -81.7311 112° Southeast 93 107 4,100  Level Jacksonville Center
Tue 11:08:41 PM 29.4342 -81.7028 105° East 99 114 4,100  Level Jacksonville Center
Tue 11:09:42 PM 29.4256 -81.6694 107° East 102 117 4,100 -98 Level Jacksonville Center
Tue 11:10:43 PM 29.4128 -81.6433 119° Southeast 95 109 3,900 -50 Descending Jacksonville Center
Tue 11:11:43 PM 29.3939 -81.6222 136° Southeast 88 101 4,000 50 Climbing Jacksonville Center
Tue 11:12:44 PM 29.3831 -81.5983 117° Southeast 91 105 4,000  Level Jacksonville Center
Tue 11:13:44 PM 29.3725 -81.5725 115° Southeast 90 104 4,000 52 Level Jacksonville Center
Tue 11:14:39 PM 29.3597 -81.5464 119° Southeast 93 107 4,100  Climbing Jacksonville Center
Tue 11:15:40 PM 29.3489 -81.5203 115° Southeast 98 113 4,000 -50 Descending Jacksonville Center
Tue 11:16:40 PM 29.3381 -81.4894 112° Southeast 101 116 4,000  Level Jacksonville Center
Tue 11:17:41 PM 29.3336 -81.4586 99° East 101 116 4,000 50 Level Jacksonville Center
Tue 11:18:41 PM 29.3228 -81.4325 115° Southeast 93 107 4,100 50 Climbing Jacksonville Center
Tue 11:19:42 PM 29.3122 -81.4042 113° Southeast 94 108 4,100  Level Jacksonville Center
Tue 11:20:43 PM 29.3033 -81.3756 110° East 93 107 4,100 -52 Level Jacksonville Center
Tue 11:21:37 PM 29.2928 -81.3519 117° Southeast 99 114 4,000 -104 Descending Jacksonville Center
Tue 11:22:38 PM 29.2694 -81.3358 149° Southeast 95 109 3,900  Descending Jacksonville Center
Tue 11:23:38 PM 29.2486 -81.3264 158° South 90 104 4,000 50 Climbing Jacksonville Center
Tue 11:24:39 PM 29.2275 -81.3125 150° Southeast 87 100 4,000 49 Level Jacksonville Center
Tue 11:25:40 PM 29.2044 -81.3011 157° South 90 104 4,100 -50 Climbing Jacksonville Center
Tue 11:26:40 PM 29.1814 -81.2919 161° South 92 106 3,900 -248 Descending Jacksonville Center
Tue 11:27:41 PM 29.1561 -81.2758 151° Southeast 93 107 3,600 -446 Descending Jacksonville Center
Tue 11:28:41 PM 29.1308 -81.2667 162° South 96 110 3,000 -248 Descending Jacksonville Center
Tue 11:29:42 PM 29.1100 -81.2550 154° Southeast 87 100 3,100 98 Climbing Jacksonville Center
Tue 11:30:43 PM 29.0869 -81.2483 166° South 86 99 3,200 -50 Climbing Jacksonville Center
Tue 11:31:43 PM 29.0617 -81.2344 154° Southeast 96 110 3,000 -99 Descending Jacksonville Center
Tue 11:32:44 PM 29.0383 -81.2158 145° Southeast 96 110 3,000 -50 Level Jacksonville Center
Tue 11:33:44 PM 29.0172 -81.1972 142° Southeast 93 107 2,900  Descending Jacksonville Center
Tue 11:34:45 PM 28.9983 -81.1808 143° Southeast 95 109 3,000 49 Climbing Jacksonville Center
Tue 11:35:46 PM 28.9897 -81.1525 109° East 108 124 3,000 -50 Level Jacksonville Center
Tue 11:36:46 PM 28.9914 -81.1217 86° East 103 119 2,900 -142 Descending Jacksonville Center
Tue 11:37:53 PM 28.9950 -81.0883 83° East 104 120 2,700 -378 Descending Jacksonville Center
Tue 11:38:53 PM 29.0050 -81.0597 68° East 90 104 2,100 -600 Descending Jacksonville Center

Login

Don't have an account? Register now (free) for customized features, flight alerts, and more!